createdAt,value
2018-05-18T00:01:33.516Z,13.90
2018-05-18T00:04:01.770Z,13.60
2018-05-18T00:06:30.830Z,13.70
2018-05-18T00:08:59.080Z,13.70
2018-05-18T00:11:27.351Z,13.50
2018-05-18T00:13:55.610Z,13.60
2018-05-18T00:16:24.763Z,13.40
2018-05-18T00:18:53.727Z,13.40
2018-05-18T00:21:22.554Z,13.40
2018-05-18T00:23:50.807Z,13.30
2018-05-18T00:26:19.062Z,13.20
2018-05-18T00:28:48.097Z,13.60
2018-05-18T00:31:16.327Z,13.60
2018-05-18T00:33:45.374Z,13.50
2018-05-18T00:36:14.090Z,13.60
2018-05-18T00:38:43.576Z,13.20
2018-05-18T00:41:11.833Z,13.40
2018-05-18T00:43:40.958Z,13.50
2018-05-18T00:46:09.204Z,13.50
2018-05-18T00:48:38.252Z,13.70
2018-05-18T00:51:06.464Z,13.70
2018-05-18T00:53:34.732Z,13.70
2018-05-18T00:56:02.989Z,13.80
2018-05-18T00:58:31.253Z,13.80
2018-05-18T01:00:59.486Z,13.50
2018-05-18T01:03:27.755Z,13.50
2018-05-18T01:05:56.049Z,13.60
2018-05-18T01:08:24.322Z,13.40
2018-05-18T01:10:52.556Z,13.40
2018-05-18T01:13:20.892Z,13.40
2018-05-18T01:15:50.061Z,13.60
2018-05-18T01:18:18.352Z,13.20
2018-05-18T01:20:47.536Z,13.40
2018-05-18T01:23:16.416Z,13.50
2018-05-18T01:25:44.687Z,13.40
2018-05-18T01:28:13.725Z,13.20
2018-05-18T01:30:41.987Z,13.20
2018-05-18T01:33:10.338Z,12.80
2018-05-18T01:35:38.626Z,12.80
2018-05-18T01:38:07.661Z,12.70
2018-05-18T01:40:35.932Z,12.70
2018-05-18T01:43:04.689Z,12.70
2018-05-18T01:45:33.693Z,12.60
2018-05-18T01:48:02.728Z,13.20
2018-05-18T01:50:31.605Z,13.20
2018-05-18T01:52:59.898Z,13.00
2018-05-18T01:55:28.724Z,13.10
2018-05-18T01:57:56.987Z,13.30
2018-05-18T02:00:26.660Z,13.10
2018-05-18T02:02:55.697Z,13.00
2018-05-18T02:05:23.932Z,13.00
2018-05-18T02:07:52.962Z,13.60
2018-05-18T02:10:21.218Z,13.60
2018-05-18T02:12:50.262Z,13.20
2018-05-18T02:15:19.107Z,13.20
2018-05-18T02:17:49.174Z,13.00
2018-05-18T02:20:17.403Z,13.00
2018-05-18T02:22:46.512Z,12.60
2018-05-18T02:25:16.251Z,12.60
2018-05-18T02:27:44.490Z,12.30
2018-05-18T02:30:12.815Z,12.50
2018-05-18T02:32:41.053Z,12.70
2018-05-18T02:35:09.377Z,12.80
2018-05-18T02:37:37.624Z,12.70
2018-05-18T02:40:06.673Z,12.60
2018-05-18T02:42:36.814Z,12.50
2018-05-18T02:45:05.075Z,12.80
2018-05-18T02:47:33.825Z,12.80
2018-05-18T02:50:03.436Z,13.30
2018-05-18T02:52:32.472Z,13.20
2018-05-18T02:55:00.713Z,13.20
2018-05-18T02:57:29.750Z,13.00
2018-05-18T02:59:57.985Z,13.00
2018-05-18T03:02:26.245Z,13.30
2018-05-18T03:04:54.514Z,12.90
2018-05-18T03:07:23.231Z,13.00
2018-05-18T03:09:51.488Z,13.20
2018-05-18T03:12:19.759Z,13.00
2018-05-18T03:14:48.050Z,13.00
2018-05-18T03:17:16.264Z,12.80
2018-05-18T03:19:44.601Z,12.40
2018-05-18T03:22:12.847Z,12.30
2018-05-18T03:24:41.913Z,12.90
2018-05-18T03:27:10.165Z,12.90
2018-05-18T03:29:39.322Z,13.10
2018-05-18T03:32:09.233Z,12.40
2018-05-18T03:34:37.565Z,12.40
2018-05-18T03:37:05.816Z,12.40
2018-05-18T03:39:34.104Z,12.40
2018-05-18T03:42:03.082Z,13.00
2018-05-18T03:44:32.113Z,12.70
2018-05-18T03:47:00.879Z,12.60
2018-05-18T03:49:29.912Z,12.70
2018-05-18T03:51:58.164Z,12.70
2018-05-18T03:54:27.204Z,12.80
2018-05-18T03:56:55.423Z,12.80
2018-05-18T03:59:23.686Z,12.70
2018-05-18T04:02:03.953Z,12.80
2018-05-18T04:04:44.293Z,12.40
2018-05-18T04:07:24.475Z,13.10
2018-05-18T04:09:52.719Z,13.10
2018-05-18T04:12:20.964Z,12.90
2018-05-18T04:14:49.831Z,12.90
2018-05-18T04:17:18.880Z,12.80
2018-05-18T04:19:47.232Z,12.80
2018-05-18T04:22:15.486Z,12.80
2018-05-18T04:24:43.748Z,12.60
2018-05-18T04:27:12.077Z,12.60
2018-05-18T04:29:41.104Z,12.80
2018-05-18T04:32:09.365Z,12.80
2018-05-18T04:34:37.613Z,12.60
2018-05-18T04:37:05.896Z,12.70
2018-05-18T04:39:34.154Z,12.70
2018-05-18T04:42:02.392Z,12.90
2018-05-18T04:44:30.635Z,13.00
2018-05-18T04:46:58.902Z,13.40
2018-05-18T04:49:27.208Z,13.10
2018-05-18T04:51:55.456Z,13.00
2018-05-18T04:54:23.700Z,13.00
2018-05-18T04:56:51.952Z,13.20
2018-05-18T04:59:20.969Z,13.30
2018-05-18T05:01:49.979Z,13.10
2018-05-18T05:04:18.231Z,13.10
2018-05-18T05:06:47.255Z,13.10
2018-05-18T05:09:15.504Z,13.10
2018-05-18T05:11:44.398Z,13.30
2018-05-18T05:14:12.637Z,13.80
2018-05-18T05:16:40.924Z,13.40
2018-05-18T05:19:09.151Z,13.30
2018-05-18T05:21:38.193Z,13.10
2018-05-18T05:24:06.420Z,13.00
2018-05-18T05:26:35.415Z,13.20
2018-05-18T05:29:04.196Z,13.20
2018-05-18T05:31:32.461Z,13.20
2018-05-18T05:34:00.745Z,12.90
2018-05-18T05:36:29.031Z,12.80
2018-05-18T05:38:58.046Z,13.50
2018-05-18T05:41:26.320Z,13.50
2018-05-18T05:43:54.630Z,13.40
2018-05-18T05:46:23.698Z,13.80
2018-05-18T05:48:52.112Z,13.80
2018-05-18T05:51:20.444Z,13.80
2018-05-18T05:53:48.676Z,13.90
2018-05-18T05:56:17.701Z,14.10
2018-05-18T05:58:45.944Z,14.10
2018-05-18T06:01:15.012Z,14.00
2018-05-18T06:03:43.241Z,13.90
2018-05-18T06:06:12.280Z,14.10
2018-05-18T06:08:40.560Z,14.10
2018-05-18T06:11:08.968Z,14.00
2018-05-18T06:13:37.205Z,13.90
2018-05-18T06:16:05.447Z,14.00
2018-05-18T06:18:33.699Z,14.10
2018-05-18T06:21:01.973Z,14.50
2018-05-18T06:23:30.221Z,14.40
2018-05-18T06:25:58.480Z,14.60
2018-05-18T06:28:27.526Z,15.10
2018-05-18T06:30:55.760Z,15.10
2018-05-18T06:33:24.821Z,15.10
2018-05-18T06:35:53.058Z,15.10
2018-05-18T06:38:21.320Z,14.70
2018-05-18T06:40:50.327Z,14.50
2018-05-18T06:43:19.945Z,14.50
2018-05-18T06:45:48.953Z,14.30
2018-05-18T06:48:17.198Z,14.30
2018-05-18T06:50:45.584Z,14.30
2018-05-18T06:53:15.231Z,15.00
2018-05-18T06:55:43.482Z,14.90
2018-05-18T06:58:12.525Z,15.80
2018-05-18T07:00:40.761Z,15.70
2018-05-18T07:03:09.804Z,16.70
2018-05-18T07:05:38.091Z,16.60
2018-05-18T07:08:06.365Z,16.90
2018-05-18T07:10:34.674Z,17.10
2018-05-18T07:13:03.678Z,17.50
2018-05-18T07:15:31.912Z,17.60
2018-05-18T07:18:00.224Z,17.60
2018-05-18T07:20:28.485Z,17.00
2018-05-18T07:22:56.718Z,16.60
2018-05-18T07:25:24.960Z,16.40
2018-05-18T07:27:53.227Z,16.10
2018-05-18T07:30:21.482Z,16.50
2018-05-18T07:32:50.556Z,16.80
2018-05-18T07:35:18.791Z,16.80
2018-05-18T07:37:47.057Z,16.90
2018-05-18T07:40:16.217Z,16.90
2018-05-18T07:42:44.501Z,16.70
2018-05-18T07:45:12.740Z,16.50
2018-05-18T07:47:41.076Z,17.50
2018-05-18T07:50:09.425Z,17.90
2018-05-18T07:52:37.636Z,18.40
2018-05-18T07:55:05.878Z,19.10
2018-05-18T07:57:34.139Z,19.90
2018-05-18T08:00:02.385Z,20.20
2018-05-18T08:02:30.654Z,20.70
2018-05-18T08:04:58.966Z,21.00
2018-05-18T08:07:27.987Z,21.40
2018-05-18T08:09:56.830Z,21.40
2018-05-18T08:12:25.980Z,21.80
2018-05-18T08:14:54.239Z,21.90
2018-05-18T08:17:23.251Z,21.10
2018-05-18T08:19:51.517Z,21.10
2018-05-18T08:22:20.552Z,20.50
2018-05-18T08:24:49.074Z,20.50
2018-05-18T08:27:23.297Z,19.40
2018-05-18T08:29:52.243Z,18.80
2018-05-18T08:32:20.772Z,18.80
2018-05-18T08:34:49.054Z,19.00
2018-05-18T08:37:18.033Z,19.30
2018-05-18T08:39:46.305Z,19.70
2018-05-18T08:42:14.716Z,20.50
2018-05-18T08:44:43.064Z,20.80
2018-05-18T08:47:11.295Z,21.10
2018-05-18T08:49:39.547Z,21.00
2018-05-18T08:52:07.800Z,20.70
2018-05-18T08:54:36.058Z,21.10
2018-05-18T08:57:05.549Z,21.90
2018-05-18T08:59:33.775Z,21.90
2018-05-18T09:02:02.849Z,21.30
2018-05-18T09:04:31.867Z,20.80
2018-05-18T09:07:00.619Z,20.80
2018-05-18T09:09:28.901Z,21.40
2018-05-18T09:11:57.320Z,22.20
2018-05-18T09:14:25.564Z,22.80
2018-05-18T09:16:53.817Z,23.30
2018-05-18T09:19:22.718Z,23.50
2018-05-18T09:21:50.985Z,23.50
2018-05-18T09:24:19.225Z,23.90
2018-05-18T09:26:49.105Z,24.00
2018-05-18T09:29:17.396Z,24.00
2018-05-18T09:31:45.632Z,24.30
2018-05-18T09:34:13.996Z,24.30
2018-05-18T09:36:42.156Z,24.70
2018-05-18T09:39:10.412Z,24.20
2018-05-18T09:41:38.644Z,23.80
2018-05-18T09:44:06.916Z,24.20
2018-05-18T09:46:35.936Z,24.60
2018-05-18T09:49:04.197Z,24.60
2018-05-18T09:51:32.908Z,24.00
2018-05-18T09:54:01.235Z,23.90
2018-05-18T09:56:29.509Z,23.90
2018-05-18T09:58:57.783Z,23.90
2018-05-18T10:01:26.047Z,23.70
2018-05-18T10:03:54.324Z,23.30
2018-05-18T10:06:22.535Z,23.50
2018-05-18T10:08:51.043Z,24.00
2018-05-18T10:11:20.053Z,24.80
2018-05-18T10:13:48.318Z,24.80
2018-05-18T10:16:16.544Z,25.30
2018-05-18T10:18:44.814Z,25.60
2018-05-18T10:21:13.076Z,25.20
2018-05-18T10:23:42.102Z,25.10
2018-05-18T10:26:10.345Z,25.10
2018-05-18T10:28:39.420Z,25.80
2018-05-18T10:31:08.021Z,25.70
2018-05-18T10:33:36.253Z,26.30
2018-05-18T10:36:04.612Z,26.10
2018-05-18T10:38:32.899Z,25.70
2018-05-18T10:41:01.921Z,24.30
2018-05-18T10:43:30.159Z,24.30
2018-05-18T10:45:59.195Z,25.70
2018-05-18T10:48:27.443Z,25.60
2018-05-18T10:50:56.479Z,26.20
2018-05-18T10:53:24.728Z,26.20
2018-05-18T10:55:54.472Z,26.40
2018-05-18T10:58:22.713Z,26.40
2018-05-18T11:00:52.475Z,26.30
2018-05-18T11:03:20.723Z,26.30
2018-05-18T11:05:49.753Z,26.00
2018-05-18T11:08:18.006Z,26.00
2018-05-18T11:10:47.485Z,26.20
2018-05-18T11:13:15.732Z,26.10
2018-05-18T11:15:43.990Z,26.50
2018-05-18T11:18:12.272Z,26.80
2018-05-18T11:20:41.063Z,27.00
2018-05-18T11:23:09.317Z,27.20
2018-05-18T11:25:38.339Z,26.80
2018-05-18T11:28:07.177Z,26.80
2018-05-18T11:30:35.448Z,26.50
2018-05-18T11:33:03.704Z,26.30
2018-05-18T11:35:31.998Z,26.50
2018-05-18T11:38:00.237Z,26.90
2018-05-18T11:40:29.341Z,27.60
2018-05-18T11:42:58.981Z,27.70
2018-05-18T11:45:28.009Z,27.20
2018-05-18T11:47:56.328Z,27.20
2018-05-18T11:50:24.576Z,27.50
2018-05-18T11:52:52.805Z,27.60
2018-05-18T11:55:21.820Z,27.00
2018-05-18T11:57:50.120Z,26.90
2018-05-18T12:00:21.676Z,27.40
2018-05-18T12:02:49.967Z,27.10
2018-05-18T12:05:18.908Z,27.60
2018-05-18T12:07:48.004Z,27.40
2018-05-18T12:10:17.648Z,27.50
2018-05-18T12:12:45.901Z,27.40
2018-05-18T12:15:14.900Z,27.40
2018-05-18T12:17:43.931Z,27.40
2018-05-18T12:20:12.246Z,27.40
2018-05-18T12:22:40.510Z,27.70
2018-05-18T12:25:08.747Z,27.60
2018-05-18T12:27:37.816Z,27.90
2018-05-18T12:30:06.066Z,27.80
2018-05-18T12:32:34.382Z,28.10
2018-05-18T12:35:03.361Z,27.80
2018-05-18T12:37:31.620Z,27.80
2018-05-18T12:39:59.872Z,28.00
2018-05-18T12:42:28.931Z,27.90
2018-05-18T12:44:57.186Z,27.90
2018-05-18T12:47:25.550Z,28.10
2018-05-18T12:49:53.817Z,27.80
2018-05-18T12:52:23.580Z,28.00
2018-05-18T12:54:51.855Z,28.00
2018-05-18T12:57:20.132Z,28.10
2018-05-18T12:59:48.808Z,27.70
2018-05-18T13:02:17.064Z,27.70
2018-05-18T13:04:46.950Z,27.80
2018-05-18T13:07:15.221Z,27.80
2018-05-18T13:09:43.533Z,27.70
2018-05-18T13:12:11.780Z,27.90
2018-05-18T13:14:40.214Z,27.70
2018-05-18T13:17:09.437Z,27.50
2018-05-18T13:19:38.420Z,27.70
2018-05-18T13:22:07.698Z,27.50
2018-05-18T13:24:36.905Z,27.50
2018-05-18T13:27:05.922Z,27.50
2018-05-18T13:29:34.955Z,27.20
2018-05-18T13:32:03.817Z,27.20
2018-05-18T13:34:32.839Z,27.30
2018-05-18T13:37:01.104Z,27.20
2018-05-18T13:39:30.336Z,27.40
2018-05-18T13:41:58.589Z,26.90
2018-05-18T13:44:26.869Z,26.90
2018-05-18T13:46:55.906Z,26.50
2018-05-18T13:49:24.197Z,26.50
2018-05-18T13:51:52.471Z,26.20
2018-05-18T13:54:20.765Z,26.40
2018-05-18T13:56:49.892Z,26.70
2018-05-18T13:59:18.937Z,26.50
2018-05-18T14:01:47.188Z,26.50
2018-05-18T14:04:16.212Z,26.30
2018-05-18T14:06:44.530Z,26.30
2018-05-18T14:09:12.782Z,26.10
2018-05-18T14:11:41.054Z,25.70
2018-05-18T14:14:09.340Z,25.40
2018-05-18T14:16:37.617Z,25.70
2018-05-18T14:19:05.874Z,26.00
2018-05-18T14:21:34.896Z,25.30
2018-05-18T14:24:03.184Z,25.30
2018-05-18T14:26:31.476Z,25.50
2018-05-18T14:29:00.443Z,25.20
2018-05-18T14:31:28.724Z,25.10
2018-05-18T14:33:57.846Z,24.70
2018-05-18T14:36:26.568Z,24.70
2018-05-18T14:38:54.835Z,24.30
2018-05-18T14:41:23.102Z,24.00
2018-05-18T14:43:51.405Z,24.30
2018-05-18T14:46:19.663Z,24.40
2018-05-18T14:48:48.765Z,24.30
2018-05-18T14:51:16.995Z,24.40
2018-05-18T14:53:45.255Z,24.60
2018-05-18T14:56:13.510Z,24.30
2018-05-18T14:58:41.764Z,24.50
2018-05-18T15:01:10.045Z,24.50
2018-05-18T15:03:39.074Z,23.70
2018-05-18T15:06:07.811Z,23.70
2018-05-18T15:08:36.311Z,23.50
2018-05-18T15:11:05.383Z,23.50
2018-05-18T15:13:33.595Z,23.50
2018-05-18T15:16:02.597Z,22.40
2018-05-18T15:18:30.883Z,22.30
2018-05-18T15:20:59.125Z,22.20
2018-05-18T15:23:27.418Z,22.20
2018-05-18T15:25:55.670Z,22.40
2018-05-18T15:28:23.901Z,22.40
2018-05-18T15:30:53.805Z,22.10
2018-05-18T15:33:22.071Z,22.10
2018-05-18T15:35:50.344Z,22.10
2018-05-18T15:38:18.706Z,22.20
2018-05-18T15:40:46.901Z,22.00
2018-05-18T15:43:15.161Z,22.20
2018-05-18T15:45:43.412Z,22.00
2018-05-18T15:48:12.252Z,21.60
2018-05-18T15:50:40.568Z,21.70
2018-05-18T15:53:08.847Z,21.40
2018-05-18T15:55:37.120Z,21.50
2018-05-18T15:58:05.376Z,21.00
2018-05-18T16:00:33.665Z,21.30
2018-05-18T16:03:01.959Z,20.90
2018-05-18T16:05:30.228Z,21.00
2018-05-18T16:07:58.511Z,20.90
2018-05-18T16:10:27.310Z,20.80
2018-05-18T16:12:55.682Z,20.50
2018-05-18T16:15:23.903Z,20.40
2018-05-18T16:17:52.971Z,20.30
2018-05-18T16:20:21.244Z,20.20
2018-05-18T16:22:50.360Z,20.30
2018-05-18T16:25:20.140Z,20.10
2018-05-18T16:27:48.401Z,20.10
2018-05-18T16:30:17.497Z,19.80
2018-05-18T16:32:46.503Z,19.80
2018-05-18T16:35:15.369Z,19.80
2018-05-18T16:37:44.397Z,19.90
2018-05-18T16:40:12.658Z,19.90
2018-05-18T16:42:41.652Z,19.80
2018-05-18T16:45:10.696Z,19.70
2018-05-18T16:47:38.950Z,19.70
2018-05-18T16:50:07.205Z,19.70
2018-05-18T16:52:35.436Z,19.60
2018-05-18T16:55:03.723Z,19.40
2018-05-18T16:57:31.997Z,19.60
2018-05-18T17:00:00.260Z,19.60
2018-05-18T17:02:28.573Z,19.60
2018-05-18T17:04:56.832Z,19.10
2018-05-18T17:07:25.243Z,19.00
2018-05-18T17:09:53.656Z,18.90
2018-05-18T17:12:21.958Z,19.10
2018-05-18T17:14:50.150Z,19.00
2018-05-18T17:17:19.169Z,18.90
2018-05-18T17:19:47.442Z,18.80
2018-05-18T17:22:16.526Z,18.70
2018-05-18T17:24:45.557Z,18.50
2018-05-18T17:27:13.808Z,18.50
2018-05-18T17:29:42.820Z,18.40
2018-05-18T17:32:11.086Z,18.40
2018-05-18T17:34:40.100Z,18.20
2018-05-18T17:37:08.380Z,18.20
2018-05-18T17:39:36.632Z,18.40
2018-05-18T17:42:05.668Z,18.20
2018-05-18T17:44:33.908Z,18.20
2018-05-18T17:47:02.948Z,17.90
2018-05-18T17:49:31.305Z,17.80
2018-05-18T17:52:00.335Z,17.90
2018-05-18T17:54:28.680Z,17.90
2018-05-18T17:56:56.864Z,17.90
2018-05-18T17:59:25.994Z,17.70
2018-05-18T18:01:54.251Z,17.70
2018-05-18T18:04:22.522Z,17.70
2018-05-18T18:06:51.563Z,17.60
2018-05-18T18:09:19.816Z,17.60
2018-05-18T18:11:48.102Z,17.40
2018-05-18T18:14:16.390Z,17.50
2018-05-18T18:16:44.661Z,17.40
2018-05-18T18:19:12.900Z,17.30
2018-05-18T18:21:41.153Z,17.40
2018-05-18T18:24:09.404Z,17.30
2018-05-18T18:26:37.664Z,17.30
2018-05-18T18:29:06.683Z,17.10
2018-05-18T18:31:35.716Z,16.80
2018-05-18T18:34:05.711Z,16.80
2018-05-18T18:36:34.721Z,16.60
2018-05-18T18:39:02.963Z,16.60
2018-05-18T18:41:31.996Z,16.40
2018-05-18T18:44:00.959Z,16.40
2018-05-18T18:46:29.203Z,16.40
2018-05-18T18:48:57.440Z,16.40
2018-05-18T18:51:26.597Z,16.60
2018-05-18T18:53:54.859Z,16.60
2018-05-18T18:56:23.129Z,16.40
2018-05-18T18:58:51.410Z,16.20
2018-05-18T19:01:20.457Z,16.30
2018-05-18T19:03:48.725Z,16.30
2018-05-18T19:06:17.853Z,16.10
2018-05-18T19:08:47.596Z,15.80
2018-05-18T19:11:15.890Z,15.80
2018-05-18T19:13:44.147Z,15.90
2018-05-18T19:16:12.409Z,15.90
2018-05-18T19:18:41.437Z,15.50
2018-05-18T19:21:09.712Z,15.50
2018-05-18T19:23:37.955Z,15.40
2018-05-18T19:26:06.227Z,15.50
2018-05-18T19:28:35.458Z,15.50
2018-05-18T19:31:04.520Z,15.20
2018-05-18T19:33:32.788Z,15.20
2018-05-18T19:36:01.152Z,15.20
2018-05-18T19:38:29.436Z,15.10
2018-05-18T19:40:57.684Z,15.10
2018-05-18T19:43:26.801Z,14.80
2018-05-18T19:45:55.051Z,14.70
2018-05-18T19:48:23.349Z,14.60
2018-05-18T19:50:52.469Z,14.30
2018-05-18T19:53:21.553Z,14.20
2018-05-18T19:55:50.549Z,14.10
2018-05-18T19:58:19.575Z,14.00
2018-05-18T20:00:47.815Z,13.90
2018-05-18T20:03:16.849Z,13.80
2018-05-18T20:05:45.187Z,13.80
2018-05-18T20:08:13.535Z,13.80
2018-05-18T20:10:41.808Z,13.80
2018-05-18T20:13:10.069Z,13.60
2018-05-18T20:15:39.635Z,13.60
2018-05-18T20:18:07.913Z,13.50
2018-05-18T20:20:36.176Z,13.50
2018-05-18T20:23:04.443Z,13.50
2018-05-18T20:25:32.691Z,13.50
2018-05-18T20:28:01.722Z,13.70
2018-05-18T20:30:29.990Z,13.70
2018-05-18T20:32:59.181Z,14.10
2018-05-18T20:35:28.214Z,14.20
2018-05-18T20:37:58.326Z,14.20
2018-05-18T20:40:26.548Z,14.00
2018-05-18T20:42:54.829Z,13.90
2018-05-18T20:45:23.056Z,14.00
2018-05-18T20:47:52.075Z,14.00
2018-05-18T20:50:20.323Z,14.00
2018-05-18T20:52:49.374Z,13.90
2018-05-18T20:55:17.625Z,13.90
2018-05-18T20:57:45.875Z,13.90
2018-05-18T21:00:14.917Z,13.70
2018-05-18T21:02:43.225Z,13.70
2018-05-18T21:05:11.477Z,13.60
2018-05-18T21:07:39.739Z,13.40
2018-05-18T21:10:08.024Z,13.30
2018-05-18T21:12:36.269Z,13.30
2018-05-18T21:15:04.540Z,13.40
2018-05-18T21:17:32.829Z,13.50
2018-05-18T21:20:01.056Z,13.80
2018-05-18T21:22:29.460Z,13.70
2018-05-18T21:24:57.715Z,13.70
2018-05-18T21:27:25.985Z,13.70
2018-05-18T21:29:54.978Z,13.40
2018-05-18T21:32:23.973Z,13.70
2018-05-18T21:34:53.713Z,13.80
2018-05-18T21:37:22.479Z,13.80
2018-05-18T21:39:51.722Z,13.70
2018-05-18T21:42:20.728Z,13.70
2018-05-18T21:44:49.034Z,13.60
2018-05-18T21:47:17.295Z,13.40
2018-05-18T21:49:45.861Z,13.20
2018-05-18T21:52:14.108Z,13.30
2018-05-18T21:54:43.148Z,13.00
2018-05-18T21:57:11.386Z,13.00
2018-05-18T21:59:40.459Z,12.80
2018-05-18T22:02:08.688Z,12.80
2018-05-18T22:04:36.949Z,13.00
2018-05-18T22:07:05.953Z,12.60
2018-05-18T22:09:34.968Z,12.40
2018-05-18T22:12:03.372Z,12.40
2018-05-18T22:14:31.627Z,12.80
2018-05-18T22:16:59.886Z,12.80
2018-05-18T22:19:29.352Z,12.70
2018-05-18T22:21:57.590Z,12.70
2018-05-18T22:24:27.534Z,12.40
2018-05-18T22:26:55.792Z,12.30
2018-05-18T22:29:24.097Z,12.50
2018-05-18T22:31:52.339Z,12.40
2018-05-18T22:34:21.410Z,12.40
2018-05-18T22:36:49.652Z,12.30
2018-05-18T22:39:17.921Z,12.00
2018-05-18T22:41:46.952Z,11.60
2018-05-18T22:44:15.997Z,11.60
2018-05-18T22:46:44.259Z,11.60
2018-05-18T22:49:13.206Z,11.50
2018-05-18T22:51:41.439Z,11.40
2018-05-18T22:54:09.721Z,11.30
2018-05-18T22:56:37.970Z,11.10
2018-05-18T22:59:06.232Z,11.10
2018-05-18T23:01:34.489Z,11.00
2018-05-18T23:04:02.765Z,10.90
2018-05-18T23:06:31.772Z,10.70
2018-05-18T23:09:00.916Z,10.60
2018-05-18T23:11:29.146Z,10.60
2018-05-18T23:13:58.153Z,10.60
2018-05-18T23:16:27.905Z,10.40
2018-05-18T23:18:56.714Z,10.40
2018-05-18T23:21:24.983Z,10.50
2018-05-18T23:23:53.709Z,10.40
2018-05-18T23:26:21.980Z,10.40
2018-05-18T23:28:50.272Z,10.30
2018-05-18T23:31:18.538Z,10.30
2018-05-18T23:33:47.764Z,10.50
2018-05-18T23:36:16.043Z,10.40
2018-05-18T23:38:44.793Z,10.70
2018-05-18T23:41:13.077Z,10.50
2018-05-18T23:43:41.404Z,10.40
2018-05-18T23:46:10.417Z,10.30
2018-05-18T23:48:39.421Z,10.30
2018-05-18T23:51:08.431Z,10.30
2018-05-18T23:53:36.687Z,10.20
2018-05-18T23:56:05.714Z,10.50
2018-05-18T23:58:33.970Z,10.40
